createdAt,value
2023-04-13T00:01:09.386Z,97389.00
2023-04-13T00:03:36.327Z,97396.38
2023-04-13T00:06:03.396Z,97401.94
2023-04-13T00:08:30.787Z,97408.44
2023-04-13T00:10:57.459Z,97403.88
2023-04-13T00:13:26.822Z,97404.91
2023-04-13T00:15:53.917Z,97404.13
2023-04-13T00:18:20.837Z,97399.88
2023-04-13T00:20:50.433Z,97407.59
2023-04-13T00:23:19.601Z,97411.56
2023-04-13T00:25:50.045Z,97414.81
2023-04-13T00:28:19.900Z,97408.63
2023-04-13T00:30:49.955Z,97426.13
2023-04-13T00:33:17.525Z,97429.50
2023-04-13T00:35:44.242Z,97426.78
2023-04-13T00:38:11.610Z,97415.72
2023-04-13T00:40:38.063Z,97424.78
2023-04-13T00:43:05.699Z,97428.13
2023-04-13T00:45:38.940Z,97426.31
2023-04-13T00:48:09.744Z,97419.75
2023-04-13T00:50:36.974Z,97419.44
2023-04-13T00:53:06.850Z,97417.34
2023-04-13T00:55:40.413Z,97410.78
2023-04-13T00:58:07.898Z,97414.19
2023-04-13T01:00:38.975Z,97403.53
2023-04-13T01:03:05.600Z,97406.94
2023-04-13T01:06:04.121Z,97398.59
2023-04-13T01:08:36.965Z,97391.78
2023-04-13T01:11:25.142Z,97386.28
2023-04-13T01:14:07.900Z,97390.03
2023-04-13T01:16:49.590Z,97377.91
2023-04-13T01:19:32.581Z,97377.38
2023-04-13T01:22:00.995Z,97385.09
2023-04-13T01:24:40.702Z,97371.00
2023-04-13T01:27:07.144Z,97371.13
2023-04-13T01:29:36.272Z,97382.66
2023-04-13T01:32:03.210Z,97375.88
2023-04-13T01:34:30.053Z,97371.63
2023-04-13T01:36:57.156Z,97377.38
2023-04-13T01:39:25.654Z,97362.22
2023-04-13T01:41:52.074Z,97369.03
2023-04-13T01:44:18.605Z,97355.06
2023-04-13T01:46:51.663Z,97355.25
2023-04-13T01:49:22.925Z,97364.09
2023-04-13T01:51:54.536Z,97360.63
2023-04-13T01:54:25.665Z,97347.13
2023-04-13T01:56:53.087Z,97346.09
2023-04-13T01:59:21.037Z,97336.72
2023-04-13T02:01:47.604Z,97337.69
2023-04-13T02:04:14.630Z,97348.78
2023-04-13T02:06:42.290Z,97346.09
2023-04-13T02:09:09.211Z,97346.31
2023-04-13T02:11:36.717Z,97343.34
2023-04-13T02:14:04.012Z,97320.59
2023-04-13T02:16:30.750Z,97327.94
2023-04-13T02:18:58.388Z,97332.19
2023-04-13T02:21:25.842Z,97336.91
2023-04-13T02:23:55.502Z,97329.53
2023-04-13T02:26:26.223Z,97332.88
2023-04-13T02:28:53.411Z,97333.84
2023-04-13T02:31:20.680Z,97357.03
2023-04-13T02:33:47.820Z,97364.09
2023-04-13T02:36:17.312Z,97356.00
2023-04-13T02:38:44.080Z,97363.72
2023-04-13T02:41:10.897Z,97359.81
2023-04-13T02:43:37.371Z,97355.00
2023-04-13T02:46:04.379Z,97351.47
2023-04-13T02:48:30.864Z,97356.16
2023-04-13T02:50:57.340Z,97346.22
2023-04-13T02:53:27.398Z,97357.53
2023-04-13T02:55:58.482Z,97345.06
2023-04-13T02:58:25.396Z,97337.22
2023-04-13T03:00:52.071Z,97339.25
2023-04-13T03:03:20.487Z,97336.38
2023-04-13T03:05:49.570Z,97334.78
2023-04-13T03:08:17.370Z,97328.81
2023-04-13T03:10:44.935Z,97327.03
2023-04-13T03:13:11.493Z,97330.78
2023-04-13T03:15:38.009Z,97337.19
2023-04-13T03:18:04.551Z,97332.63
2023-04-13T03:20:31.195Z,97321.25
2023-04-13T03:22:58.775Z,97325.19
2023-04-13T03:25:26.061Z,97314.59
2023-04-13T03:27:52.516Z,97311.22
2023-04-13T03:30:19.096Z,97320.78
2023-04-13T03:32:45.663Z,97328.66
2023-04-13T03:35:12.199Z,97327.94
2023-04-13T03:37:42.961Z,97316.59
2023-04-13T03:40:12.981Z,97321.47
2023-04-13T03:42:39.509Z,97318.69
2023-04-13T03:45:06.646Z,97327.91
2023-04-13T03:47:33.493Z,97320.34
2023-04-13T03:50:00.105Z,97329.50
2023-04-13T03:52:31.147Z,97320.13
2023-04-13T03:55:01.911Z,97318.34
2023-04-13T03:57:29.174Z,97320.47
2023-04-13T03:59:59.219Z,97332.03
2023-04-13T04:02:28.564Z,97340.44
2023-04-13T04:04:55.136Z,97343.22
2023-04-13T04:07:23.756Z,97337.13
2023-04-13T04:09:50.447Z,97340.28
2023-04-13T04:12:17.072Z,97342.00
2023-04-13T04:14:43.515Z,97345.69
2023-04-13T04:17:09.930Z,97343.81
2023-04-13T04:19:37.120Z,97344.09
2023-04-13T04:22:04.208Z,97347.72
2023-04-13T04:24:30.667Z,97339.16
2023-04-13T04:27:02.669Z,97339.44
2023-04-13T04:29:34.768Z,97346.13
2023-04-13T04:32:03.273Z,97341.88
2023-04-13T04:34:31.647Z,97336.09
2023-04-13T04:37:03.249Z,97344.66
2023-04-13T04:39:35.272Z,97332.13
2023-04-13T04:42:04.579Z,97334.97
2023-04-13T04:44:31.272Z,97332.34
2023-04-13T04:47:00.544Z,97330.25
2023-04-13T04:49:29.566Z,97338.66
2023-04-13T04:51:58.330Z,97336.84
2023-04-13T04:54:26.028Z,97328.16
2023-04-13T04:56:53.586Z,97328.06
2023-04-13T04:59:20.096Z,97322.59
2023-04-13T05:01:47.167Z,97319.75
2023-04-13T05:04:13.955Z,97321.53
2023-04-13T05:06:42.097Z,97330.22
2023-04-13T05:09:09.048Z,97330.72
2023-04-13T05:11:36.434Z,97320.22
2023-04-13T05:14:03.106Z,97326.00
2023-04-13T05:16:34.413Z,97323.16
2023-04-13T05:19:01.752Z,97321.44
2023-04-13T05:21:32.065Z,97319.78
2023-04-13T05:24:01.612Z,97318.00
2023-04-13T05:26:32.457Z,97324.97
2023-04-13T05:29:03.100Z,97330.31
2023-04-13T05:31:30.562Z,97337.06
2023-04-13T05:33:57.016Z,97334.81
2023-04-13T05:36:23.451Z,97351.16
2023-04-13T05:38:50.118Z,97341.69
2023-04-13T05:41:16.602Z,97349.34
2023-04-13T05:43:44.416Z,97358.00
2023-04-13T05:46:11.627Z,97359.63
2023-04-13T05:48:38.561Z,97346.72
2023-04-13T05:51:05.881Z,97350.22
2023-04-13T05:53:32.402Z,97368.22
2023-04-13T05:56:03.133Z,97371.28
2023-04-13T05:58:31.574Z,97375.19
2023-04-13T06:01:00.136Z,97378.91
2023-04-13T06:03:27.569Z,97389.34
2023-04-13T06:05:54.866Z,97368.91
2023-04-13T06:08:21.696Z,97383.78
2023-04-13T06:10:48.978Z,97398.41
2023-04-13T06:13:15.676Z,97389.38
2023-04-13T06:15:42.297Z,97388.09
2023-04-13T06:18:08.798Z,97379.19
2023-04-13T06:20:35.956Z,97402.13
2023-04-13T06:23:02.436Z,97397.22
2023-04-13T06:25:31.808Z,97391.28
2023-04-13T06:28:01.900Z,97392.25
2023-04-13T06:30:33.533Z,97400.25
2023-04-13T06:33:00.646Z,97388.72
2023-04-13T06:35:27.260Z,97396.19
2023-04-13T06:37:54.310Z,97400.31
2023-04-13T06:40:22.987Z,97402.16
2023-04-13T06:42:49.423Z,97397.09
2023-04-13T06:45:16.240Z,97393.66
2023-04-13T06:47:43.576Z,97408.84
2023-04-13T06:50:13.837Z,97412.84
2023-04-13T06:52:43.468Z,97402.28
2023-04-13T06:55:10.133Z,97398.00
2023-04-13T06:57:36.629Z,97399.00
2023-04-13T07:00:12.624Z,97407.22
2023-04-13T07:02:48.983Z,97389.72
2023-04-13T07:05:15.895Z,97401.84
2023-04-13T07:07:42.440Z,97395.84
2023-04-13T07:10:09.357Z,97392.59
2023-04-13T07:12:36.075Z,97397.25
2023-04-13T07:15:02.627Z,97393.28
2023-04-13T07:17:33.776Z,97389.03
2023-04-13T07:20:04.492Z,97390.69
2023-04-13T07:22:35.518Z,97391.66
2023-04-13T07:25:02.343Z,97384.72
2023-04-13T07:27:33.905Z,97388.00
2023-04-13T07:30:01.640Z,97373.38
2023-04-13T07:32:31.324Z,97383.16
2023-04-13T07:35:01.620Z,97388.06
2023-04-13T07:37:31.727Z,97369.81
2023-04-13T07:39:58.773Z,97378.19
2023-04-13T07:42:25.387Z,97375.66
2023-04-13T07:44:55.934Z,97373.50
2023-04-13T07:47:22.502Z,97370.00
2023-04-13T07:49:49.090Z,97341.66
2023-04-13T07:52:15.747Z,97351.56
2023-04-13T07:54:42.287Z,97371.75
2023-04-13T07:57:08.733Z,97376.22
2023-04-13T07:59:35.288Z,97361.94
2023-04-13T08:02:01.921Z,97347.16
2023-04-13T08:04:30.101Z,97363.94
2023-04-13T08:06:57.169Z,97364.22
2023-04-13T08:09:23.595Z,97376.03
2023-04-13T08:11:50.202Z,97354.63
2023-04-13T08:14:16.726Z,97367.06
2023-04-13T08:16:43.436Z,97342.00
2023-04-13T08:19:09.998Z,97373.91
2023-04-13T08:21:38.621Z,97358.38
2023-04-13T08:24:05.546Z,97357.13
2023-04-13T08:26:32.144Z,97345.78
2023-04-13T08:29:00.733Z,97358.63
2023-04-13T08:31:29.171Z,97359.34
2023-04-13T08:33:57.604Z,97355.22
2023-04-13T08:36:24.545Z,97353.31
2023-04-13T08:38:51.036Z,97359.72
2023-04-13T08:41:17.817Z,97358.28
2023-04-13T08:43:46.840Z,97346.59
2023-04-13T08:46:19.417Z,97355.50
2023-04-13T08:48:54.175Z,97346.69
2023-04-13T08:51:22.436Z,97330.81
2023-04-13T08:53:49.309Z,97325.41
2023-04-13T08:56:16.662Z,97324.84
2023-04-13T08:58:45.179Z,97328.63
2023-04-13T09:01:13.614Z,97322.94
2023-04-13T09:04:10.624Z,97340.88
2023-04-13T09:06:41.385Z,97315.59
2023-04-13T09:09:15.833Z,97329.38
2023-04-13T09:11:43.364Z,97337.16
2023-04-13T09:14:10.322Z,97317.75
2023-04-13T09:16:41.541Z,97321.97
2023-04-13T09:19:08.725Z,97307.16
2023-04-13T09:21:40.910Z,97328.69
2023-04-13T09:24:08.449Z,97340.81
2023-04-13T09:26:46.412Z,97341.84
2023-04-13T09:29:15.030Z,97347.31
2023-04-13T09:31:43.716Z,97322.44
2023-04-13T09:34:12.021Z,97348.13
2023-04-13T09:36:49.498Z,97347.69
2023-04-13T09:39:30.544Z,97341.53
2023-04-13T09:42:00.061Z,97336.06
2023-04-13T09:44:34.867Z,97335.56
2023-04-13T09:47:06.086Z,97322.34
2023-04-13T09:49:40.227Z,97323.59
2023-04-13T09:52:18.115Z,97338.84
2023-04-13T09:54:49.350Z,97344.91
2023-04-13T09:57:26.338Z,97342.41
2023-04-13T09:59:55.709Z,97341.41
2023-04-13T10:02:22.520Z,97327.25
2023-04-13T10:04:49.703Z,97317.97
2023-04-13T10:07:16.414Z,97311.81
2023-04-13T10:09:45.771Z,97301.06
2023-04-13T10:12:14.706Z,97302.41
2023-04-13T10:14:44.189Z,97300.47
2023-04-13T10:17:24.084Z,97303.66
2023-04-13T10:19:53.110Z,97305.66
2023-04-13T10:22:22.869Z,97282.28
2023-04-13T10:24:52.639Z,97288.00
2023-04-13T10:27:20.969Z,97278.66
2023-04-13T10:29:47.988Z,97279.53
2023-04-13T10:32:26.720Z,97315.13
2023-04-13T10:34:54.732Z,97330.84
2023-04-13T10:37:37.118Z,97328.81
2023-04-13T10:40:06.348Z,97330.53
2023-04-13T10:45:26.621Z,97332.94
2023-04-13T10:47:54.502Z,97324.28
2023-04-13T10:50:22.813Z,97321.88
2023-04-13T10:53:05.527Z,97296.25
2023-04-13T10:55:33.059Z,97282.41
2023-04-13T10:58:01.795Z,97275.50
2023-04-13T11:00:45.537Z,97284.06
2023-04-13T11:03:17.630Z,97270.13
2023-04-13T11:05:57.826Z,97255.50
2023-04-13T11:08:24.664Z,97254.94
2023-04-13T11:10:53.190Z,97250.50
2023-04-13T11:13:20.456Z,97264.81
2023-04-13T11:15:48.235Z,97266.47
2023-04-13T11:18:25.686Z,97270.16
2023-04-13T11:20:52.449Z,97288.81
2023-04-13T11:23:20.028Z,97277.50
2023-04-13T11:26:04.839Z,97255.81
2023-04-13T11:28:42.447Z,97247.41
2023-04-13T11:31:09.341Z,97243.41
2023-04-13T11:33:37.886Z,97243.59
2023-04-13T11:36:07.771Z,97249.28
2023-04-13T11:38:34.394Z,97241.28
2023-04-13T11:41:15.894Z,97236.13
2023-04-13T11:43:46.148Z,97245.38
2023-04-13T11:46:15.227Z,97245.06
2023-04-13T11:48:42.420Z,97230.63
2023-04-13T11:51:09.877Z,97246.16
2023-04-13T11:53:38.720Z,97241.28
2023-04-13T11:56:06.186Z,97236.22
2023-04-13T11:58:37.365Z,97237.44
2023-04-13T12:01:13.802Z,97226.94
2023-04-13T12:03:53.435Z,97211.22
2023-04-13T12:06:29.008Z,97207.72
2023-04-13T12:09:09.774Z,97206.81
2023-04-13T12:11:42.382Z,97221.00
2023-04-13T12:19:24.094Z,97196.13
2023-04-13T12:21:57.466Z,97188.91
2023-04-13T12:24:37.634Z,97195.25
2023-04-13T12:29:41.010Z,97177.78
2023-04-13T12:32:14.240Z,97194.47
2023-04-13T12:34:41.836Z,97192.16
2023-04-13T12:37:08.279Z,97188.66
2023-04-13T12:39:34.744Z,97179.41
2023-04-13T12:42:02.739Z,97176.59
2023-04-13T12:44:30.387Z,97174.69
2023-04-13T12:46:59.079Z,97169.13
2023-04-13T12:49:25.917Z,97182.03
2023-04-13T12:51:52.370Z,97184.69
2023-04-13T12:54:18.852Z,97166.91
2023-04-13T12:56:45.275Z,97170.69
2023-04-13T12:59:11.729Z,97157.31
2023-04-13T13:01:38.420Z,97144.22
2023-04-13T13:04:06.116Z,97133.97
2023-04-13T13:06:34.626Z,97143.34
2023-04-13T13:09:01.367Z,97136.97
2023-04-13T13:11:28.430Z,97137.25
2023-04-13T13:13:55.174Z,97139.34
2023-04-13T13:16:21.873Z,97140.09
2023-04-13T13:18:51.348Z,97130.47
2023-04-13T13:21:18.725Z,97152.53
2023-04-13T13:23:45.692Z,97140.97
2023-04-13T13:28:42.465Z,97166.53
2023-04-13T13:31:09.098Z,97155.47
2023-04-13T13:33:36.320Z,97163.53
2023-04-13T13:36:02.838Z,97157.81
2023-04-13T13:38:29.442Z,97148.03
2023-04-13T13:40:56.038Z,97154.41
2023-04-13T13:43:22.595Z,97149.34
2023-04-13T13:45:49.210Z,97138.38
2023-04-13T13:48:15.885Z,97115.66
2023-04-13T13:50:42.464Z,97106.84
2023-04-13T13:53:09.074Z,97101.84
2023-04-13T13:55:38.496Z,97108.78
2023-04-13T13:58:07.514Z,97089.38
2023-04-13T14:00:35.681Z,97132.19
2023-04-13T14:03:02.252Z,97117.53
2023-04-13T14:05:28.850Z,97124.44
2023-04-13T14:07:55.367Z,97129.25
2023-04-13T14:10:21.860Z,97129.19
2023-04-13T14:12:50.550Z,97098.59
2023-04-13T14:15:17.873Z,97119.91
2023-04-13T14:17:50.193Z,97125.41
2023-04-13T14:20:22.322Z,97128.72
2023-04-13T14:22:48.782Z,97132.34
2023-04-13T14:25:15.328Z,97133.84
2023-04-13T14:27:41.769Z,97126.81
2023-04-13T14:30:09.345Z,97132.16
2023-04-13T14:32:35.890Z,97130.75
2023-04-13T14:35:03.022Z,97127.66
2023-04-13T14:37:29.539Z,97122.81
2023-04-13T14:39:56.084Z,97133.84
2023-04-13T14:42:24.545Z,97120.31
2023-04-13T14:44:51.858Z,97143.09
2023-04-13T14:47:19.621Z,97133.38
2023-04-13T14:49:47.429Z,97139.91
2023-04-13T14:52:15.137Z,97134.97
2023-04-13T14:54:41.913Z,97133.97
2023-04-13T14:57:09.408Z,97127.84
2023-04-13T14:59:35.964Z,97127.03
2023-04-13T15:02:02.539Z,97106.78
2023-04-13T15:04:29.710Z,97105.34
2023-04-13T15:06:56.350Z,97111.63
2023-04-13T15:09:22.872Z,97113.28
2023-04-13T15:11:49.431Z,97118.88
2023-04-13T15:14:16.335Z,97111.13
2023-04-13T15:16:42.967Z,97117.22
2023-04-13T15:19:09.509Z,97112.03
2023-04-13T15:21:36.218Z,97119.03
2023-04-13T15:24:02.777Z,97111.66
2023-04-13T15:26:29.745Z,97123.19
2023-04-13T15:28:56.172Z,97103.53
2023-04-13T15:31:22.795Z,97123.75
2023-04-13T15:33:49.300Z,97125.41
2023-04-13T15:36:16.141Z,97124.69
2023-04-13T15:38:43.190Z,97115.63
2023-04-13T15:41:13.719Z,97111.09
2023-04-13T15:43:41.502Z,97126.22
2023-04-13T15:46:09.035Z,97123.19
2023-04-13T15:48:35.734Z,97131.34
2023-04-13T15:51:02.331Z,97137.16
2023-04-13T15:53:29.058Z,97155.13
2023-04-13T15:55:55.739Z,97157.31
2023-04-13T15:58:22.359Z,97150.91
2023-04-13T16:01:10.125Z,97158.19
2023-04-13T16:03:37.755Z,97142.59
2023-04-13T16:06:04.617Z,97160.78
2023-04-13T16:08:31.359Z,97186.53
2023-04-13T16:10:58.088Z,97175.22
2023-04-13T16:13:41.524Z,97164.97
2023-04-13T16:16:15.065Z,97130.94
2023-04-13T16:18:44.274Z,97186.47
2023-04-13T16:21:10.997Z,97199.53
2023-04-13T16:23:38.100Z,97196.03
2023-04-13T16:26:05.038Z,97196.41
2023-04-13T16:28:31.698Z,97193.22
2023-04-13T16:30:58.646Z,97182.75
2023-04-13T16:34:24.411Z,97205.09
2023-04-13T16:36:55.013Z,97200.91
2023-04-13T16:39:41.334Z,97206.66
2023-04-13T16:42:07.916Z,97206.63
2023-04-13T16:44:34.411Z,97219.50
2023-04-13T16:47:01.069Z,97218.53
2023-04-13T16:49:27.910Z,97218.44
2023-04-13T16:51:54.353Z,97216.31
2023-04-13T16:54:21.139Z,97189.41
2023-04-13T16:56:47.777Z,97209.84
2023-04-13T16:59:17.462Z,97206.41
2023-04-13T17:01:46.757Z,97217.63
2023-04-13T17:04:15.771Z,97226.84
2023-04-13T17:10:25.887Z,97230.03
2023-04-13T17:12:52.697Z,97202.84
2023-04-13T17:15:20.094Z,97231.63
2023-04-13T17:17:52.793Z,97218.41
2023-04-13T17:20:19.524Z,97227.22
2023-04-13T17:23:08.683Z,97236.91
2023-04-13T17:25:40.908Z,97211.97
2023-04-13T17:28:07.668Z,97209.56
2023-04-13T17:30:34.152Z,97222.22
2023-04-13T17:33:00.645Z,97223.59
2023-04-13T17:35:27.159Z,97242.44
2023-04-13T17:38:49.066Z,97246.44
2023-04-13T17:41:17.491Z,97239.69
2023-04-13T17:43:54.330Z,97219.97
2023-04-13T17:46:21.146Z,97252.63
2023-04-13T17:48:48.845Z,97255.22
2023-04-13T17:51:49.315Z,97264.41
2023-04-13T17:54:20.145Z,97275.97
2023-04-13T17:56:50.232Z,97259.06
2023-04-13T18:00:05.182Z,97281.72
2023-04-13T18:02:31.857Z,97258.19
2023-04-13T18:05:21.428Z,97278.53
2023-04-13T18:08:20.620Z,97287.41
2023-04-13T18:10:49.697Z,97214.00
2023-04-13T18:13:18.982Z,97233.63
2023-04-13T18:15:49.077Z,97283.38
2023-04-13T18:18:24.467Z,97279.88
2023-04-13T18:20:52.172Z,97289.03
2023-04-13T18:23:21.813Z,97272.16
2023-04-13T18:25:52.636Z,97271.16
2023-04-13T18:28:20.610Z,97285.66
2023-04-13T18:30:47.238Z,97290.22
2023-04-13T18:33:13.765Z,97293.84
2023-04-13T18:35:45.545Z,97287.84
2023-04-13T18:38:12.555Z,97306.81
2023-04-13T18:40:43.359Z,97308.81
2023-04-13T18:43:09.831Z,97298.75
2023-04-13T18:45:36.283Z,97310.94
2023-04-13T18:48:25.943Z,97328.31
2023-04-13T18:50:52.502Z,97327.69
2023-04-13T18:53:19.720Z,97327.94
2023-04-13T18:55:51.709Z,97321.19
2023-04-13T18:58:22.176Z,97337.50
2023-04-13T19:00:48.773Z,97344.50
2023-04-13T19:03:15.688Z,97348.78
2023-04-13T19:05:42.301Z,97336.09
2023-04-13T19:08:10.412Z,97348.91
2023-04-13T19:11:00.364Z,97356.78
2023-04-13T19:13:26.894Z,97351.72
2023-04-13T19:15:56.973Z,97365.88
2023-04-13T19:18:24.978Z,97361.47
2023-04-13T19:21:00.545Z,97380.25
2023-04-13T19:23:40.141Z,97362.22
2023-04-13T19:26:07.196Z,97390.56
2023-04-13T19:28:33.697Z,97386.97
2023-04-13T19:31:00.232Z,97401.41
2023-04-13T19:33:26.711Z,97390.19
2023-04-13T19:35:53.183Z,97399.00
2023-04-13T19:38:21.141Z,97422.91
2023-04-13T19:40:47.657Z,97418.97
2023-04-13T19:43:23.689Z,97416.97
2023-04-13T19:45:52.701Z,97421.59
2023-04-13T19:48:19.160Z,97417.47
2023-04-13T19:50:45.595Z,97413.16
2023-04-13T19:53:12.176Z,97416.09
2023-04-13T19:55:38.657Z,97437.69
2023-04-13T19:58:05.209Z,97435.16
2023-04-13T20:00:32.104Z,97444.66
2023-04-13T20:03:03.272Z,97446.56
2023-04-13T20:05:32.684Z,97452.50
2023-04-13T20:07:59.275Z,97453.09
2023-04-13T20:10:25.804Z,97446.03
2023-04-13T20:12:55.300Z,97440.44
2023-04-13T20:15:23.131Z,97443.78
2023-04-13T20:17:51.877Z,97443.97
2023-04-13T20:20:20.598Z,97458.47
2023-04-13T20:22:48.472Z,97452.19
2023-04-13T20:25:14.947Z,97448.78
2023-04-13T20:27:42.317Z,97452.59
2023-04-13T20:30:10.066Z,97457.06
2023-04-13T20:32:36.530Z,97461.03
2023-04-13T20:35:03.120Z,97450.69
2023-04-13T20:37:29.550Z,97464.72
2023-04-13T20:39:57.397Z,97464.91
2023-04-13T20:42:24.178Z,97460.63
2023-04-13T20:44:57.778Z,97461.78
2023-04-13T20:47:28.609Z,97464.53
2023-04-13T20:49:57.343Z,97456.13
2023-04-13T20:52:25.883Z,97457.13
2023-04-13T20:54:54.603Z,97463.91
2023-04-13T20:57:21.593Z,97469.34
2023-04-13T20:59:49.023Z,97471.00
2023-04-13T21:02:15.876Z,97458.78
2023-04-13T21:04:42.624Z,97468.22
2023-04-13T21:07:12.914Z,97473.63
2023-04-13T21:09:39.927Z,97465.72
2023-04-13T21:12:06.716Z,97454.22
2023-04-13T21:14:33.626Z,97463.28
2023-04-13T21:17:00.048Z,97457.00
2023-04-13T21:19:27.663Z,97463.44
2023-04-13T21:21:57.341Z,97464.28
2023-04-13T21:24:26.092Z,97474.84
2023-04-13T21:26:52.552Z,97464.09
2023-04-13T21:29:20.106Z,97465.25
2023-04-13T21:31:47.636Z,97460.94
2023-04-13T21:34:14.130Z,97463.78
2023-04-13T21:39:13.509Z,97457.69
2023-04-13T21:41:41.417Z,97475.00
2023-04-13T21:44:16.197Z,97459.81
2023-04-13T21:46:52.863Z,97459.69
2023-04-13T21:49:19.424Z,97460.00
2023-04-13T21:51:45.996Z,97464.31
2023-04-13T21:54:12.440Z,97457.50
2023-04-13T21:56:38.891Z,97475.97
2023-04-13T21:59:05.463Z,97468.91
2023-04-13T22:01:31.928Z,97463.78
2023-04-13T22:03:58.676Z,97481.75
2023-04-13T22:06:27.770Z,97465.78
2023-04-13T22:08:54.978Z,97476.97
2023-04-13T22:11:21.537Z,97471.69
2023-04-13T22:13:48.005Z,97477.66
2023-04-13T22:16:14.712Z,97468.91
2023-04-13T22:18:41.751Z,97479.13
2023-04-13T22:21:08.252Z,97472.69
2023-04-13T22:23:34.713Z,97474.66
2023-04-13T22:26:01.626Z,97472.84
2023-04-13T22:28:31.865Z,97471.84
2023-04-13T22:31:08.601Z,97478.56
2023-04-13T22:33:40.362Z,97488.69
2023-04-13T22:36:16.504Z,97480.13
2023-04-13T22:38:42.961Z,97480.50
2023-04-13T22:41:09.807Z,97480.31
2023-04-13T22:43:36.301Z,97488.03
2023-04-13T22:46:03.102Z,97482.44
2023-04-13T22:48:32.946Z,97487.91
2023-04-13T22:51:03.668Z,97481.47
2023-04-13T22:53:31.201Z,97489.38
2023-04-13T22:55:57.830Z,97490.53
2023-04-13T22:58:24.366Z,97487.88
2023-04-13T23:00:51.091Z,97487.72
2023-04-13T23:03:17.909Z,97480.66
2023-04-13T23:05:44.604Z,97492.34
2023-04-13T23:08:11.499Z,97495.34
2023-04-13T23:10:37.931Z,97481.38
2023-04-13T23:13:04.766Z,97488.84
2023-04-13T23:15:31.665Z,97485.34
2023-04-13T23:18:01.771Z,97493.38
2023-04-13T23:20:28.463Z,97484.78
2023-04-13T23:22:55.903Z,97488.69
2023-04-13T23:25:22.398Z,97484.88
2023-04-13T23:27:48.850Z,97492.88
2023-04-13T23:30:16.210Z,97503.13
2023-04-13T23:32:42.793Z,97484.38
2023-04-13T23:35:09.514Z,97489.94
2023-04-13T23:37:35.970Z,97496.63
2023-04-13T23:40:06.142Z,97498.31
2023-04-13T23:42:35.172Z,97499.16
2023-04-13T23:45:05.816Z,97494.22
2023-04-13T23:47:36.004Z,97486.50
2023-04-13T23:50:04.555Z,97498.66
2023-04-13T23:52:31.965Z,97503.13
2023-04-13T23:54:58.480Z,97497.09
2023-04-13T23:57:24.932Z,97494.34
2023-04-13T23:59:57.554Z,97492.72
